sensor_id;sensor_type;location;lat;lon;timestamp;temperature;humidity
70820;DHT22;58439;51.046;13.692;2022-12-16T00:01:25;-2.90;93.60
70820;DHT22;58439;51.046;13.692;2022-12-16T00:03:55;-3.00;93.60
70820;DHT22;58439;51.046;13.692;2022-12-16T00:06:26;-3.00;93.60
70820;DHT22;58439;51.046;13.692;2022-12-16T00:08:56;-3.00;93.60
70820;DHT22;58439;51.046;13.692;2022-12-16T00:11:24;-3.00;93.60
70820;DHT22;58439;51.046;13.692;2022-12-16T00:13:51;-3.00;93.70
70820;DHT22;58439;51.046;13.692;2022-12-16T00:16:20;-3.00;93.70
70820;DHT22;58439;51.046;13.692;2022-12-16T00:18:48;-3.00;93.80
70820;DHT22;58439;51.046;13.692;2022-12-16T00:21:18;-3.00;93.80
70820;DHT22;58439;51.046;13.692;2022-12-16T00:23:46;-3.00;93.80
70820;DHT22;58439;51.046;13.692;2022-12-16T00:26:13;-3.00;93.80
70820;DHT22;58439;51.046;13.692;2022-12-16T00:28:41;-3.00;93.80
70820;DHT22;58439;51.046;13.692;2022-12-16T00:31:09;-3.00;93.70
70820;DHT22;58439;51.046;13.692;2022-12-16T00:33:37;-3.00;93.70
70820;DHT22;58439;51.046;13.692;2022-12-16T00:36:05;-3.00;93.70
70820;DHT22;58439;51.046;13.692;2022-12-16T00:38:32;-3.00;93.70
70820;DHT22;58439;51.046;13.692;2022-12-16T00:41:00;-3.00;93.70
70820;DHT22;58439;51.046;13.692;2022-12-16T00:43:27;-3.00;93.80
70820;DHT22;58439;51.046;13.692;2022-12-16T00:45:54;-3.00;93.80
70820;DHT22;58439;51.046;13.692;2022-12-16T00:48:22;-3.00;93.90
70820;DHT22;58439;51.046;13.692;2022-12-16T00:50:50;-3.00;93.90
70820;DHT22;58439;51.046;13.692;2022-12-16T00:53:22;-3.00;94.00
70820;DHT22;58439;51.046;13.692;2022-12-16T00:55:51;-3.00;94.30
70820;DHT22;58439;51.046;13.692;2022-12-16T00:58:27;-2.90;94.10
70820;DHT22;58439;51.046;13.692;2022-12-16T01:00:54;-2.90;94.00
70820;DHT22;58439;51.046;13.692;2022-12-16T01:03:21;-2.90;93.90
70820;DHT22;58439;51.046;13.692;2022-12-16T01:05:49;-2.90;93.90
70820;DHT22;58439;51.046;13.692;2022-12-16T01:08:16;-2.90;93.90
70820;DHT22;58439;51.046;13.692;2022-12-16T01:10:56;-2.90;94.00
70820;DHT22;58439;51.046;13.692;2022-12-16T01:13:24;-2.90;94.10
70820;DHT22;58439;51.046;13.692;2022-12-16T01:15:52;-2.90;94.20
70820;DHT22;58439;51.046;13.692;2022-12-16T01:18:20;-2.80;94.20
70820;DHT22;58439;51.046;13.692;2022-12-16T01:20:47;-2.80;94.20
70820;DHT22;58439;51.046;13.692;2022-12-16T01:23:14;-2.80;94.20
70820;DHT22;58439;51.046;13.692;2022-12-16T01:25:42;-2.80;94.20
70820;DHT22;58439;51.046;13.692;2022-12-16T01:28:09;-2.80;94.10
70820;DHT22;58439;51.046;13.692;2022-12-16T01:30:36;-2.80;94.10
70820;DHT22;58439;51.046;13.692;2022-12-16T01:33:03;-2.80;94.10
70820;DHT22;58439;51.046;13.692;2022-12-16T01:35:30;-2.70;94.20
70820;DHT22;58439;51.046;13.692;2022-12-16T01:38:17;-2.70;94.20
70820;DHT22;58439;51.046;13.692;2022-12-16T01:40:44;-2.70;94.20
70820;DHT22;58439;51.046;13.692;2022-12-16T01:43:13;-2.70;94.10
70820;DHT22;58439;51.046;13.692;2022-12-16T01:45:41;-2.70;94.00
70820;DHT22;58439;51.046;13.692;2022-12-16T01:48:32;-2.70;94.00
70820;DHT22;58439;51.046;13.692;2022-12-16T01:51:37;-2.70;94.00
70820;DHT22;58439;51.046;13.692;2022-12-16T01:54:10;-2.70;94.00
70820;DHT22;58439;51.046;13.692;2022-12-16T01:56:44;-2.80;93.90
70820;DHT22;58439;51.046;13.692;2022-12-16T01:59:35;-2.80;94.20
70820;DHT22;58439;51.046;13.692;2022-12-16T02:02:06;-2.80;94.00
70820;DHT22;58439;51.046;13.692;2022-12-16T02:04:34;-2.90;94.10
70820;DHT22;58439;51.046;13.692;2022-12-16T02:16:46;-2.90;94.10
70820;DHT22;58439;51.046;13.692;2022-12-16T02:19:53;-2.90;94.00
70820;DHT22;58439;51.046;13.692;2022-12-16T02:25:56;-2.90;94.10
70820;DHT22;58439;51.046;13.692;2022-12-16T02:38:06;-3.00;94.40
70820;DHT22;58439;51.046;13.692;2022-12-16T02:40:46;-3.00;94.50
70820;DHT22;58439;51.046;13.692;2022-12-16T02:46:29;-2.90;94.60
70820;DHT22;58439;51.046;13.692;2022-12-16T02:51:38;-2.80;94.60
70820;DHT22;58439;51.046;13.692;2022-12-16T02:54:06;-2.90;94.60
70820;DHT22;58439;51.046;13.692;2022-12-16T03:00:03;-2.80;94.60
70820;DHT22;58439;51.046;13.692;2022-12-16T03:05:27;-2.80;94.60
70820;DHT22;58439;51.046;13.692;2022-12-16T03:08:01;-2.80;94.50
70820;DHT22;58439;51.046;13.692;2022-12-16T03:10:49;-2.80;94.50
70820;DHT22;58439;51.046;13.692;2022-12-16T03:13:21;-2.70;94.60
70820;DHT22;58439;51.046;13.692;2022-12-16T03:15:52;-2.70;94.70
70820;DHT22;58439;51.046;13.692;2022-12-16T03:18:23;-2.60;94.50
70820;DHT22;58439;51.046;13.692;2022-12-16T03:21:03;-2.60;94.20
70820;DHT22;58439;51.046;13.692;2022-12-16T03:23:41;-2.60;94.10
70820;DHT22;58439;51.046;13.692;2022-12-16T03:26:18;-2.60;94.10
70820;DHT22;58439;51.046;13.692;2022-12-16T03:28:52;-2.60;94.10
70820;DHT22;58439;51.046;13.692;2022-12-16T03:31:51;-2.60;94.10
70820;DHT22;58439;51.046;13.692;2022-12-16T03:34:40;-2.60;94.10
70820;DHT22;58439;51.046;13.692;2022-12-16T03:37:12;-2.60;94.10
70820;DHT22;58439;51.046;13.692;2022-12-16T03:39:45;-2.60;94.00
70820;DHT22;58439;51.046;13.692;2022-12-16T03:42:15;-2.60;93.90
70820;DHT22;58439;51.046;13.692;2022-12-16T03:44:44;-2.60;93.90
70820;DHT22;58439;51.046;13.692;2022-12-16T03:47:13;-2.60;93.70
70820;DHT22;58439;51.046;13.692;2022-12-16T03:49:49;-2.60;93.60
70820;DHT22;58439;51.046;13.692;2022-12-16T03:52:16;-2.60;93.40
70820;DHT22;58439;51.046;13.692;2022-12-16T03:54:44;-2.70;93.10
70820;DHT22;58439;51.046;13.692;2022-12-16T03:57:11;-2.70;93.00
70820;DHT22;58439;51.046;13.692;2022-12-16T03:59:41;-2.70;92.90
70820;DHT22;58439;51.046;13.692;2022-12-16T04:02:09;-2.70;93.00
70820;DHT22;58439;51.046;13.692;2022-12-16T04:04:36;-2.70;92.80
70820;DHT22;58439;51.046;13.692;2022-12-16T04:07:04;-2.60;92.50
70820;DHT22;58439;51.046;13.692;2022-12-16T04:09:47;-2.70;92.30
70820;DHT22;58439;51.046;13.692;2022-12-16T04:12:15;-2.60;92.00
70820;DHT22;58439;51.046;13.692;2022-12-16T04:15:02;-2.60;91.70
70820;DHT22;58439;51.046;13.692;2022-12-16T04:17:48;-2.60;91.30
70820;DHT22;58439;51.046;13.692;2022-12-16T04:20:42;-2.60;91.20
70820;DHT22;58439;51.046;13.692;2022-12-16T04:23:32;-2.60;90.90
70820;DHT22;58439;51.046;13.692;2022-12-16T04:26:20;-2.60;90.90
70820;DHT22;58439;51.046;13.692;2022-12-16T04:28:48;-2.70;90.80
70820;DHT22;58439;51.046;13.692;2022-12-16T04:31:15;-2.70;90.60
70820;DHT22;58439;51.046;13.692;2022-12-16T04:33:42;-2.60;90.60
70820;DHT22;58439;51.046;13.692;2022-12-16T04:36:28;-2.70;90.50
70820;DHT22;58439;51.046;13.692;2022-12-16T04:39:14;-2.70;90.50
70820;DHT22;58439;51.046;13.692;2022-12-16T04:41:59;-2.70;90.30
70820;DHT22;58439;51.046;13.692;2022-12-16T04:44:47;-2.70;90.30
70820;DHT22;58439;51.046;13.692;2022-12-16T04:47:52;-2.60;90.30
70820;DHT22;58439;51.046;13.692;2022-12-16T04:50:38;-2.60;90.40
70820;DHT22;58439;51.046;13.692;2022-12-16T04:53:25;-2.70;90.20
70820;DHT22;58439;51.046;13.692;2022-12-16T04:56:11;-2.70;90.00
70820;DHT22;58439;51.046;13.692;2022-12-16T04:58:57;-2.60;90.00
70820;DHT22;58439;51.046;13.692;2022-12-16T05:01:44;-2.60;89.80
70820;DHT22;58439;51.046;13.692;2022-12-16T05:04:30;-2.60;89.50
70820;DHT22;58439;51.046;13.692;2022-12-16T05:07:15;-2.60;89.20
70820;DHT22;58439;51.046;13.692;2022-12-16T05:10:05;-2.60;88.80
70820;DHT22;58439;51.046;13.692;2022-12-16T05:12:52;-2.60;88.10
70820;DHT22;58439;51.046;13.692;2022-12-16T05:15:39;-2.60;88.40
70820;DHT22;58439;51.046;13.692;2022-12-16T05:18:25;-2.60;88.90
70820;DHT22;58439;51.046;13.692;2022-12-16T05:21:11;-2.60;88.80
70820;DHT22;58439;51.046;13.692;2022-12-16T05:23:56;-2.50;88.90
70820;DHT22;58439;51.046;13.692;2022-12-16T05:26:46;-2.50;88.90
70820;DHT22;58439;51.046;13.692;2022-12-16T05:29:32;-2.60;88.60
70820;DHT22;58439;51.046;13.692;2022-12-16T05:32:28;-2.60;88.60
70820;DHT22;58439;51.046;13.692;2022-12-16T05:35:14;-2.70;88.80
70820;DHT22;58439;51.046;13.692;2022-12-16T05:38:00;-2.70;89.10
70820;DHT22;58439;51.046;13.692;2022-12-16T05:40:46;-2.80;89.20
70820;DHT22;58439;51.046;13.692;2022-12-16T05:43:31;-2.80;89.40
70820;DHT22;58439;51.046;13.692;2022-12-16T05:46:17;-2.80;89.10
70820;DHT22;58439;51.046;13.692;2022-12-16T05:49:03;-2.80;89.00
70820;DHT22;58439;51.046;13.692;2022-12-16T05:51:49;-2.80;88.90
70820;DHT22;58439;51.046;13.692;2022-12-16T05:54:36;-2.80;89.20
70820;DHT22;58439;51.046;13.692;2022-12-16T05:57:22;-2.80;89.60
70820;DHT22;58439;51.046;13.692;2022-12-16T06:03:57;-2.90;89.70
70820;DHT22;58439;51.046;13.692;2022-12-16T06:06:44;-2.90;89.70
70820;DHT22;58439;51.046;13.692;2022-12-16T06:09:30;-2.90;89.50
70820;DHT22;58439;51.046;13.692;2022-12-16T06:12:22;-2.90;89.70
70820;DHT22;58439;51.046;13.692;2022-12-16T06:15:09;-2.90;90.00
70820;DHT22;58439;51.046;13.692;2022-12-16T06:17:55;-3.00;90.30
70820;DHT22;58439;51.046;13.692;2022-12-16T06:20:42;-3.00;90.20
70820;DHT22;58439;51.046;13.692;2022-12-16T06:23:35;-2.90;90.20
70820;DHT22;58439;51.046;13.692;2022-12-16T06:26:20;-2.90;90.30
70820;DHT22;58439;51.046;13.692;2022-12-16T06:29:08;-2.90;90.30
70820;DHT22;58439;51.046;13.692;2022-12-16T06:31:54;-2.90;90.30
70820;DHT22;58439;51.046;13.692;2022-12-16T06:34:40;-2.90;90.30
70820;DHT22;58439;51.046;13.692;2022-12-16T06:37:26;-2.90;90.40
70820;DHT22;58439;51.046;13.692;2022-12-16T06:40:12;-2.90;90.40
70820;DHT22;58439;51.046;13.692;2022-12-16T06:42:58;-2.90;90.50
70820;DHT22;58439;51.046;13.692;2022-12-16T06:45:44;-2.90;90.90
70820;DHT22;58439;51.046;13.692;2022-12-16T06:48:30;-2.80;90.60
70820;DHT22;58439;51.046;13.692;2022-12-16T06:51:16;-2.90;90.60
70820;DHT22;58439;51.046;13.692;2022-12-16T06:54:02;-2.80;90.60
70820;DHT22;58439;51.046;13.692;2022-12-16T06:56:48;-2.80;91.00
70820;DHT22;58439;51.046;13.692;2022-12-16T06:59:34;-2.80;90.70
70820;DHT22;58439;51.046;13.692;2022-12-16T07:02:21;-2.80;90.90
70820;DHT22;58439;51.046;13.692;2022-12-16T07:05:18;-2.80;90.90
70820;DHT22;58439;51.046;13.692;2022-12-16T07:08:04;-2.70;90.90
70820;DHT22;58439;51.046;13.692;2022-12-16T07:10:50;-2.70;90.90
70820;DHT22;58439;51.046;13.692;2022-12-16T07:13:43;-2.70;91.00
70820;DHT22;58439;51.046;13.692;2022-12-16T07:16:29;-2.70;91.00
70820;DHT22;58439;51.046;13.692;2022-12-16T07:19:15;-2.70;91.10
70820;DHT22;58439;51.046;13.692;2022-12-16T07:22:01;-2.70;91.40
70820;DHT22;58439;51.046;13.692;2022-12-16T07:24:47;-2.70;91.30
70820;DHT22;58439;51.046;13.692;2022-12-16T07:27:33;-2.70;91.30
70820;DHT22;58439;51.046;13.692;2022-12-16T07:30:19;-2.70;91.30
70820;DHT22;58439;51.046;13.692;2022-12-16T07:33:05;-2.60;91.40
70820;DHT22;58439;51.046;13.692;2022-12-16T07:35:50;-2.60;91.50
70820;DHT22;58439;51.046;13.692;2022-12-16T07:38:37;-2.60;91.60
70820;DHT22;58439;51.046;13.692;2022-12-16T07:41:23;-2.50;91.60
70820;DHT22;58439;51.046;13.692;2022-12-16T07:44:09;-2.50;91.60
70820;DHT22;58439;51.046;13.692;2022-12-16T07:46:55;-2.40;91.60
70820;DHT22;58439;51.046;13.692;2022-12-16T07:49:41;-2.40;91.60
70820;DHT22;58439;51.046;13.692;2022-12-16T07:52:27;-2.40;91.50
70820;DHT22;58439;51.046;13.692;2022-12-16T07:55:13;-2.40;91.50
70820;DHT22;58439;51.046;13.692;2022-12-16T07:57:59;-2.30;91.60
70820;DHT22;58439;51.046;13.692;2022-12-16T08:00:45;-2.30;91.50
70820;DHT22;58439;51.046;13.692;2022-12-16T08:03:35;-2.30;91.40
70820;DHT22;58439;51.046;13.692;2022-12-16T08:06:22;-2.30;91.50
70820;DHT22;58439;51.046;13.692;2022-12-16T08:09:08;-2.30;91.50
70820;DHT22;58439;51.046;13.692;2022-12-16T08:11:53;-2.20;91.60
70820;DHT22;58439;51.046;13.692;2022-12-16T08:14:39;-2.20;91.50
70820;DHT22;58439;51.046;13.692;2022-12-16T08:17:24;-2.20;91.50
70820;DHT22;58439;51.046;13.692;2022-12-16T08:20:11;-2.10;91.60
70820;DHT22;58439;51.046;13.692;2022-12-16T08:22:57;-2.10;91.50
70820;DHT22;58439;51.046;13.692;2022-12-16T08:25:43;-2.10;91.40
70820;DHT22;58439;51.046;13.692;2022-12-16T08:28:28;-2.10;91.40
70820;DHT22;58439;51.046;13.692;2022-12-16T08:31:14;-2.10;91.40
70820;DHT22;58439;51.046;13.692;2022-12-16T08:34:00;-2.10;91.50
70820;DHT22;58439;51.046;13.692;2022-12-16T08:36:47;-2.00;91.90
70820;DHT22;58439;51.046;13.692;2022-12-16T08:39:34;-2.00;91.60
70820;DHT22;58439;51.046;13.692;2022-12-16T08:42:40;-2.00;91.70
70820;DHT22;58439;51.046;13.692;2022-12-16T08:45:26;-1.90;91.50
70820;DHT22;58439;51.046;13.692;2022-12-16T08:48:12;-1.90;91.30
70820;DHT22;58439;51.046;13.692;2022-12-16T08:51:03;-1.90;91.30
70820;DHT22;58439;51.046;13.692;2022-12-16T08:53:50;-1.90;91.20
70820;DHT22;58439;51.046;13.692;2022-12-16T08:57:04;-1.90;91.30
70820;DHT22;58439;51.046;13.692;2022-12-16T08:59:50;-1.90;91.30
70820;DHT22;58439;51.046;13.692;2022-12-16T09:02:37;-1.90;91.20
70820;DHT22;58439;51.046;13.692;2022-12-16T09:05:23;-1.80;91.00
70820;DHT22;58439;51.046;13.692;2022-12-16T09:08:08;-1.80;90.90
70820;DHT22;58439;51.046;13.692;2022-12-16T09:11:25;-1.70;90.80
70820;DHT22;58439;51.046;13.692;2022-12-16T09:14:11;-1.70;90.70
70820;DHT22;58439;51.046;13.692;2022-12-16T09:16:57;-1.60;90.50
70820;DHT22;58439;51.046;13.692;2022-12-16T09:20:08;-1.60;90.40
70820;DHT22;58439;51.046;13.692;2022-12-16T09:22:55;-1.60;90.20
70820;DHT22;58439;51.046;13.692;2022-12-16T09:26:06;-1.50;89.60
70820;DHT22;58439;51.046;13.692;2022-12-16T09:28:52;-1.50;89.30
70820;DHT22;58439;51.046;13.692;2022-12-16T09:31:37;-1.50;89.20
70820;DHT22;58439;51.046;13.692;2022-12-16T09:34:24;-1.40;89.60
70820;DHT22;58439;51.046;13.692;2022-12-16T09:37:09;-1.40;89.30
70820;DHT22;58439;51.046;13.692;2022-12-16T09:39:55;-1.30;88.70
70820;DHT22;58439;51.046;13.692;2022-12-16T09:48:55;-1.00;86.60
70820;DHT22;58439;51.046;13.692;2022-12-16T09:52:02;-1.00;85.80
70820;DHT22;58439;51.046;13.692;2022-12-16T09:54:50;-1.10;84.70
70820;DHT22;58439;51.046;13.692;2022-12-16T09:57:36;-1.10;85.20
70820;DHT22;58439;51.046;13.692;2022-12-16T10:00:25;-1.10;85.40
70820;DHT22;58439;51.046;13.692;2022-12-16T10:03:22;-1.10;85.40
70820;DHT22;58439;51.046;13.692;2022-12-16T10:06:50;-1.00;86.00
70820;DHT22;58439;51.046;13.692;2022-12-16T10:16:51;-0.60;84.50
70820;DHT22;58439;51.046;13.692;2022-12-16T10:23:21;-0.50;83.70
70820;DHT22;58439;51.046;13.692;2022-12-16T10:26:33;-0.40;84.40
70820;DHT22;58439;51.046;13.692;2022-12-16T10:29:45;-0.20;83.60
70820;DHT22;58439;51.046;13.692;2022-12-16T10:32:39;0.10;82.50
70820;DHT22;58439;51.046;13.692;2022-12-16T10:35:33;0.30;82.00
70820;DHT22;58439;51.046;13.692;2022-12-16T10:38:45;0.70;81.30
70820;DHT22;58439;51.046;13.692;2022-12-16T10:41:42;1.20;78.00
70820;DHT22;58439;51.046;13.692;2022-12-16T10:44:36;1.20;76.10
70820;DHT22;58439;51.046;13.692;2022-12-16T10:47:32;1.00;74.80
70820;DHT22;58439;51.046;13.692;2022-12-16T10:50:19;0.50;75.60
70820;DHT22;58439;51.046;13.692;2022-12-16T10:53:17;0.20;77.10
70820;DHT22;58439;51.046;13.692;2022-12-16T10:56:46;-0.10;77.90
70820;DHT22;58439;51.046;13.692;2022-12-16T10:59:39;-0.40;79.90
70820;DHT22;58439;51.046;13.692;2022-12-16T11:02:27;-0.50;80.90
70820;DHT22;58439;51.046;13.692;2022-12-16T11:05:33;-0.50;81.50
70820;DHT22;58439;51.046;13.692;2022-12-16T11:08:30;-0.70;81.40
70820;DHT22;58439;51.046;13.692;2022-12-16T11:11:25;-0.80;82.50
70820;DHT22;58439;51.046;13.692;2022-12-16T11:14:27;-0.80;83.10
70820;DHT22;58439;51.046;13.692;2022-12-16T11:17:34;-0.70;83.30
70820;DHT22;58439;51.046;13.692;2022-12-16T11:20:45;-0.80;83.30
70820;DHT22;58439;51.046;13.692;2022-12-16T11:23:40;-0.80;83.70
70820;DHT22;58439;51.046;13.692;2022-12-16T11:26:30;-0.90;83.60
70820;DHT22;58439;51.046;13.692;2022-12-16T11:29:30;-0.90;84.00
70820;DHT22;58439;51.046;13.692;2022-12-16T11:35:14;-1.00;84.60
70820;DHT22;58439;51.046;13.692;2022-12-16T11:38:27;-0.90;84.80
70820;DHT22;58439;51.046;13.692;2022-12-16T11:41:28;-0.90;85.10
70820;DHT22;58439;51.046;13.692;2022-12-16T11:44:21;-0.90;84.40
70820;DHT22;58439;51.046;13.692;2022-12-16T11:47:42;-0.90;84.70
70820;DHT22;58439;51.046;13.692;2022-12-16T11:50:35;-1.00;84.70
70820;DHT22;58439;51.046;13.692;2022-12-16T11:53:47;-1.10;84.80
70820;DHT22;58439;51.046;13.692;2022-12-16T11:56:42;-1.20;85.30
70820;DHT22;58439;51.046;13.692;2022-12-16T11:59:39;-1.20;85.80
70820;DHT22;58439;51.046;13.692;2022-12-16T12:09:24;-1.20;85.30
70820;DHT22;58439;51.046;13.692;2022-12-16T12:12:32;-1.20;85.60
70820;DHT22;58439;51.046;13.692;2022-12-16T12:15:39;-1.20;85.60
70820;DHT22;58439;51.046;13.692;2022-12-16T12:18:56;-1.20;86.00
70820;DHT22;58439;51.046;13.692;2022-12-16T12:21:58;-1.30;85.80
70820;DHT22;58439;51.046;13.692;2022-12-16T12:25:41;-1.30;85.90
70820;DHT22;58439;51.046;13.692;2022-12-16T12:28:29;-1.30;86.00
70820;DHT22;58439;51.046;13.692;2022-12-16T12:34:56;-1.40;86.10
70820;DHT22;58439;51.046;13.692;2022-12-16T12:44:16;-1.60;86.00
70820;DHT22;58439;51.046;13.692;2022-12-16T12:47:16;-1.60;86.50
70820;DHT22;58439;51.046;13.692;2022-12-16T12:50:16;-1.60;86.50
70820;DHT22;58439;51.046;13.692;2022-12-16T12:53:35;-1.60;86.40
70820;DHT22;58439;51.046;13.692;2022-12-16T12:56:45;-1.70;86.30
70820;DHT22;58439;51.046;13.692;2022-12-16T13:02:52;-1.80;86.30
70820;DHT22;58439;51.046;13.692;2022-12-16T13:05:43;-1.90;86.50
70820;DHT22;58439;51.046;13.692;2022-12-16T13:08:42;-1.90;86.00
70820;DHT22;58439;51.046;13.692;2022-12-16T13:11:35;-2.10;86.00
70820;DHT22;58439;51.046;13.692;2022-12-16T13:17:20;-2.20;87.10
70820;DHT22;58439;51.046;13.692;2022-12-16T13:20:34;-2.20;87.40
70820;DHT22;58439;51.046;13.692;2022-12-16T13:23:29;-2.20;87.10
70820;DHT22;58439;51.046;13.692;2022-12-16T13:26:20;-2.30;87.10
70820;DHT22;58439;51.046;13.692;2022-12-16T13:44:46;-2.20;88.50
70820;DHT22;58439;51.046;13.692;2022-12-16T13:50:44;-2.20;87.90
70820;DHT22;58439;51.046;13.692;2022-12-16T13:53:46;-2.30;87.80
70820;DHT22;58439;51.046;13.692;2022-12-16T13:56:41;-2.30;87.90
70820;DHT22;58439;51.046;13.692;2022-12-16T13:59:36;-2.30;88.10
70820;DHT22;58439;51.046;13.692;2022-12-16T14:02:40;-2.40;87.90
70820;DHT22;58439;51.046;13.692;2022-12-16T14:05:30;-2.40;88.00
70820;DHT22;58439;51.046;13.692;2022-12-16T14:08:36;-2.50;87.70
70820;DHT22;58439;51.046;13.692;2022-12-16T14:11:45;-2.60;87.90
70820;DHT22;58439;51.046;13.692;2022-12-16T14:14:58;-2.70;88.10
70820;DHT22;58439;51.046;13.692;2022-12-16T14:18:02;-2.80;88.50
70820;DHT22;58439;51.046;13.692;2022-12-16T14:21:01;-2.80;88.90
70820;DHT22;58439;51.046;13.692;2022-12-16T14:23:50;-2.80;89.30
70820;DHT22;58439;51.046;13.692;2022-12-16T14:26:42;-2.70;89.50
70820;DHT22;58439;51.046;13.692;2022-12-16T14:29:29;-2.80;89.10
70820;DHT22;58439;51.046;13.692;2022-12-16T14:32:33;-2.80;89.30
70820;DHT22;58439;51.046;13.692;2022-12-16T14:35:22;-2.80;89.50
70820;DHT22;58439;51.046;13.692;2022-12-16T14:38:29;-2.80;89.50
70820;DHT22;58439;51.046;13.692;2022-12-16T14:41:21;-2.80;89.60
70820;DHT22;58439;51.046;13.692;2022-12-16T14:44:21;-2.90;88.90
70820;DHT22;58439;51.046;13.692;2022-12-16T14:47:19;-2.90;88.90
70820;DHT22;58439;51.046;13.692;2022-12-16T14:50:21;-3.00;89.50
70820;DHT22;58439;51.046;13.692;2022-12-16T14:53:21;-3.00;89.40
70820;DHT22;58439;51.046;13.692;2022-12-16T14:56:28;-3.10;89.70
70820;DHT22;58439;51.046;13.692;2022-12-16T14:59:17;-3.20;89.30
70820;DHT22;58439;51.046;13.692;2022-12-16T15:05:15;-3.30;90.00
70820;DHT22;58439;51.046;13.692;2022-12-16T15:08:17;-3.30;89.90
70820;DHT22;58439;51.046;13.692;2022-12-16T15:10:58;-3.30;89.70
70820;DHT22;58439;51.046;13.692;2022-12-16T15:13:47;-3.40;89.70
70820;DHT22;58439;51.046;13.692;2022-12-16T15:16:39;-3.50;89.90
70820;DHT22;58439;51.046;13.692;2022-12-16T15:19:27;-3.50;90.40
70820;DHT22;58439;51.046;13.692;2022-12-16T15:22:18;-3.50;90.20
70820;DHT22;58439;51.046;13.692;2022-12-16T15:25:04;-3.60;90.20
70820;DHT22;58439;51.046;13.692;2022-12-16T15:27:55;-3.60;90.30
70820;DHT22;58439;51.046;13.692;2022-12-16T15:30:45;-3.60;90.40
70820;DHT22;58439;51.046;13.692;2022-12-16T15:33:37;-3.60;90.60
70820;DHT22;58439;51.046;13.692;2022-12-16T15:36:29;-3.60;90.70
70820;DHT22;58439;51.046;13.692;2022-12-16T15:39:20;-3.60;90.60
70820;DHT22;58439;51.046;13.692;2022-12-16T15:48:26;-3.50;90.80
70820;DHT22;58439;51.046;13.692;2022-12-16T15:51:47;-3.60;90.80
70820;DHT22;58439;51.046;13.692;2022-12-16T15:54:49;-3.60;90.70
70820;DHT22;58439;51.046;13.692;2022-12-16T15:57:38;-3.60;90.80
70820;DHT22;58439;51.046;13.692;2022-12-16T16:00:29;-3.60;90.80
70820;DHT22;58439;51.046;13.692;2022-12-16T16:03:28;-3.60;90.90
70820;DHT22;58439;51.046;13.692;2022-12-16T16:06:25;-3.50;91.00
70820;DHT22;58439;51.046;13.692;2022-12-16T16:09:26;-3.60;91.00
70820;DHT22;58439;51.046;13.692;2022-12-16T16:12:15;-3.50;91.00
70820;DHT22;58439;51.046;13.692;2022-12-16T16:15:08;-3.50;91.00
70820;DHT22;58439;51.046;13.692;2022-12-16T16:18:01;-3.50;91.20
70820;DHT22;58439;51.046;13.692;2022-12-16T16:20:49;-3.40;91.10
70820;DHT22;58439;51.046;13.692;2022-12-16T16:23:36;-3.40;90.90
70820;DHT22;58439;51.046;13.692;2022-12-16T16:26:25;-3.40;91.00
70820;DHT22;58439;51.046;13.692;2022-12-16T16:29:12;-3.40;91.00
70820;DHT22;58439;51.046;13.692;2022-12-16T16:31:58;-3.40;91.00
70820;DHT22;58439;51.046;13.692;2022-12-16T16:34:44;-3.50;91.00
70820;DHT22;58439;51.046;13.692;2022-12-16T16:37:30;-3.50;91.10
70820;DHT22;58439;51.046;13.692;2022-12-16T16:40:21;-3.40;91.30
70820;DHT22;58439;51.046;13.692;2022-12-16T16:43:16;-3.40;91.20
70820;DHT22;58439;51.046;13.692;2022-12-16T16:46:12;-3.40;91.20
70820;DHT22;58439;51.046;13.692;2022-12-16T16:49:11;-3.50;91.20
70820;DHT22;58439;51.046;13.692;2022-12-16T16:52:02;-3.50;91.40
70820;DHT22;58439;51.046;13.692;2022-12-16T16:54:47;-3.50;91.40
70820;DHT22;58439;51.046;13.692;2022-12-16T16:57:34;-3.40;91.50
70820;DHT22;58439;51.046;13.692;2022-12-16T17:00:22;-3.40;91.60
70820;DHT22;58439;51.046;13.692;2022-12-16T17:03:16;-3.40;91.80
70820;DHT22;58439;51.046;13.692;2022-12-16T17:06:04;-3.40;91.50
70820;DHT22;58439;51.046;13.692;2022-12-16T17:08:50;-3.40;91.70
70820;DHT22;58439;51.046;13.692;2022-12-16T17:11:37;-3.40;91.70
70820;DHT22;58439;51.046;13.692;2022-12-16T17:14:29;-3.40;91.80
70820;DHT22;58439;51.046;13.692;2022-12-16T17:17:15;-3.40;91.80
70820;DHT22;58439;51.046;13.692;2022-12-16T17:20:01;-3.30;91.80
70820;DHT22;58439;51.046;13.692;2022-12-16T17:22:46;-3.30;91.90
70820;DHT22;58439;51.046;13.692;2022-12-16T17:25:32;-3.30;91.80
70820;DHT22;58439;51.046;13.692;2022-12-16T17:28:18;-3.30;91.90
70820;DHT22;58439;51.046;13.692;2022-12-16T17:31:04;-3.30;92.00
70820;DHT22;58439;51.046;13.692;2022-12-16T17:33:49;-3.30;92.00
70820;DHT22;58439;51.046;13.692;2022-12-16T17:36:35;-3.30;91.90
70820;DHT22;58439;51.046;13.692;2022-12-16T17:39:21;-3.30;92.00
70820;DHT22;58439;51.046;13.692;2022-12-16T17:42:07;-3.30;92.10
70820;DHT22;58439;51.046;13.692;2022-12-16T17:44:53;-3.20;92.20
70820;DHT22;58439;51.046;13.692;2022-12-16T17:47:39;-3.20;92.30
70820;DHT22;58439;51.046;13.692;2022-12-16T17:50:25;-3.10;92.20
70820;DHT22;58439;51.046;13.692;2022-12-16T17:53:11;-3.10;92.10
70820;DHT22;58439;51.046;13.692;2022-12-16T17:56:02;-3.10;92.10
70820;DHT22;58439;51.046;13.692;2022-12-16T17:58:49;-3.10;92.20
70820;DHT22;58439;51.046;13.692;2022-12-16T18:01:37;-3.00;92.30
70820;DHT22;58439;51.046;13.692;2022-12-16T18:04:23;-3.00;92.20
70820;DHT22;58439;51.046;13.692;2022-12-16T18:07:09;-3.00;92.20
70820;DHT22;58439;51.046;13.692;2022-12-16T18:09:54;-3.00;92.20
70820;DHT22;58439;51.046;13.692;2022-12-16T18:12:40;-3.00;92.10
70820;DHT22;58439;51.046;13.692;2022-12-16T18:15:26;-3.00;92.10
70820;DHT22;58439;51.046;13.692;2022-12-16T18:18:12;-3.00;92.00
70820;DHT22;58439;51.046;13.692;2022-12-16T18:21:08;-3.00;92.00
70820;DHT22;58439;51.046;13.692;2022-12-16T18:23:54;-3.00;91.90
70820;DHT22;58439;51.046;13.692;2022-12-16T18:26:41;-3.00;91.90
70820;DHT22;58439;51.046;13.692;2022-12-16T18:29:27;-3.00;92.00
70820;DHT22;58439;51.046;13.692;2022-12-16T18:32:13;-2.90;92.10
70820;DHT22;58439;51.046;13.692;2022-12-16T18:35:01;-3.00;92.00
70820;DHT22;58439;51.046;13.692;2022-12-16T18:37:48;-2.90;92.10
70820;DHT22;58439;51.046;13.692;2022-12-16T18:40:40;-3.00;92.00
70820;DHT22;58439;51.046;13.692;2022-12-16T18:43:26;-3.00;92.10
70820;DHT22;58439;51.046;13.692;2022-12-16T18:46:11;-3.00;92.10
70820;DHT22;58439;51.046;13.692;2022-12-16T18:48:57;-3.00;92.10
70820;DHT22;58439;51.046;13.692;2022-12-16T18:51:43;-2.90;92.10
70820;DHT22;58439;51.046;13.692;2022-12-16T18:54:35;-2.90;92.10
70820;DHT22;58439;51.046;13.692;2022-12-16T18:57:23;-2.90;92.00
70820;DHT22;58439;51.046;13.692;2022-12-16T19:00:26;-2.90;92.10
70820;DHT22;58439;51.046;13.692;2022-12-16T19:03:12;-3.00;92.10
70820;DHT22;58439;51.046;13.692;2022-12-16T19:05:59;-2.90;92.20
70820;DHT22;58439;51.046;13.692;2022-12-16T19:08:45;-3.00;92.20
70820;DHT22;58439;51.046;13.692;2022-12-16T19:11:31;-2.90;92.20